< < Back
Terminal Aerodrome Forecast


Current Version              Previous Versions:   1  2  3  4  5  6  7  8  9  

Terminal Aerodrome Forecast

103
FTUS44 KOHX 312321
TAFBNA
TAF
KBNA 312321Z 0100/0124 VRB04KT P6SM FEW050 SCT120 SCT250
      TEMPO 0108/0112 3SM BR
     FM011300 07003KT P6SM SCT250
     FM011800 06005KT P6SM SCT060 SCT250=



Latest METAR

924
SAUS70 KWBC 010500 RRK
MTRBNA
METAR KBNA 010453Z 00000KT 10SM CLR 22/19 A3011 RMK AO2 SLP190
T02220189


USA.gov is the U.S. government's official web portal to all federal, state and local government web resources and services.